createdAt,value
2023-02-23T00:01:42.073Z,77.70
2023-02-23T00:04:10.935Z,74.23
2023-02-23T00:06:40.158Z,75.77
2023-02-23T00:09:23.362Z,75.00
2023-02-23T00:11:52.895Z,75.67
2023-02-23T00:14:24.678Z,73.70
2023-02-23T00:16:53.129Z,79.00
2023-02-23T00:19:24.706Z,75.50
2023-02-23T00:21:53.593Z,76.87
2023-02-23T00:24:23.208Z,78.47
2023-02-23T00:26:52.196Z,78.37
2023-02-23T00:29:21.428Z,76.80
2023-02-23T00:31:51.746Z,74.60
2023-02-23T00:34:22.026Z,75.53
2023-02-23T00:36:51.906Z,78.13
2023-02-23T00:39:21.832Z,78.90
2023-02-23T00:41:50.548Z,85.20
2023-02-23T00:44:19.019Z,80.03
2023-02-23T00:46:49.809Z,83.10
2023-02-23T00:49:20.489Z,82.57
2023-02-23T00:51:49.902Z,90.37
2023-02-23T00:54:18.797Z,81.90
2023-02-23T00:56:47.395Z,83.60
2023-02-23T00:59:16.712Z,85.10
2023-02-23T01:01:45.575Z,88.10
2023-02-23T01:04:14.526Z,82.00
2023-02-23T01:06:46.226Z,86.80
2023-02-23T01:09:22.132Z,82.53
2023-02-23T01:11:50.578Z,84.47
2023-02-23T01:14:19.222Z,92.70
2023-02-23T01:16:47.850Z,89.07
2023-02-23T01:19:16.243Z,88.07
2023-02-23T01:21:46.061Z,88.00
2023-02-23T01:24:15.229Z,86.90
2023-02-23T01:26:44.518Z,89.20
2023-02-23T01:29:14.139Z,94.87
2023-02-23T01:31:43.561Z,90.80
2023-02-23T01:34:12.967Z,91.77
2023-02-23T01:36:42.566Z,91.77
2023-02-23T01:39:13.564Z,91.13
2023-02-23T01:41:43.397Z,90.37
2023-02-23T01:44:26.653Z,91.73
2023-02-23T01:46:55.040Z,95.73
2023-02-23T01:49:25.609Z,90.60
2023-02-23T01:51:56.791Z,93.27
2023-02-23T01:54:29.041Z,95.90
2023-02-23T01:56:58.994Z,100.30
2023-02-23T01:59:30.155Z,95.60
2023-02-23T02:01:58.565Z,95.40
2023-02-23T02:04:27.296Z,98.00
2023-02-23T02:06:56.870Z,98.87
2023-02-23T02:09:28.437Z,99.80
2023-02-23T02:11:56.835Z,101.43
2023-02-23T02:14:27.604Z,103.97
2023-02-23T02:17:08.799Z,96.40
2023-02-23T02:19:54.895Z,92.53
2023-02-23T02:22:48.225Z,87.50
2023-02-23T02:25:30.918Z,91.53
2023-02-23T02:28:14.159Z,88.83
2023-02-23T02:30:52.729Z,95.40
2023-02-23T02:33:32.128Z,103.50
2023-02-23T02:36:23.784Z,93.80
2023-02-23T02:38:58.868Z,91.20
2023-02-23T02:41:37.011Z,94.77
2023-02-23T02:44:10.870Z,96.10
2023-02-23T02:46:40.166Z,92.73
2023-02-23T02:49:10.687Z,99.73
2023-02-23T02:51:42.890Z,106.47
2023-02-23T02:54:16.988Z,104.97
2023-02-23T02:56:46.410Z,103.97
2023-02-23T02:59:33.574Z,103.50
2023-02-23T03:02:19.732Z,98.33
2023-02-23T03:05:05.764Z,96.60
2023-02-23T03:07:56.328Z,101.33
2023-02-23T03:10:46.984Z,96.47
2023-02-23T03:13:36.922Z,93.83
2023-02-23T03:16:31.440Z,87.23
2023-02-23T03:19:25.225Z,92.07
2023-02-23T03:22:14.584Z,91.47
2023-02-23T03:25:05.828Z,98.40
2023-02-23T03:28:02.984Z,109.03
2023-02-23T03:30:51.616Z,98.80
2023-02-23T03:33:39.675Z,104.93
2023-02-23T03:36:28.020Z,112.13
2023-02-23T03:39:18.216Z,105.37
2023-02-23T03:42:04.694Z,107.50
2023-02-23T03:44:53.932Z,109.07
2023-02-23T03:47:42.876Z,110.30
2023-02-23T03:50:31.328Z,106.53
2023-02-23T03:53:18.637Z,106.30
2023-02-23T03:56:08.660Z,105.93
2023-02-23T03:58:57.918Z,101.80
2023-02-23T04:01:46.143Z,105.43
2023-02-23T04:04:32.401Z,112.57
2023-02-23T04:07:20.845Z,112.37
2023-02-23T04:10:06.901Z,109.60
2023-02-23T04:12:55.448Z,117.57
2023-02-23T04:15:25.985Z,114.17
2023-02-23T04:17:56.004Z,110.50
2023-02-23T04:20:25.797Z,121.70
2023-02-23T04:22:54.268Z,118.07
2023-02-23T04:25:23.167Z,115.50
2023-02-23T04:27:51.739Z,119.73
2023-02-23T04:30:20.573Z,114.33
2023-02-23T04:32:49.188Z,119.93
2023-02-23T04:35:19.085Z,118.47
2023-02-23T04:37:47.509Z,114.20
2023-02-23T04:40:16.067Z,120.60
2023-02-23T04:42:44.492Z,122.50
2023-02-23T04:45:13.324Z,112.93
2023-02-23T04:47:41.741Z,122.37
2023-02-23T04:50:10.878Z,123.73
2023-02-23T04:52:40.750Z,114.93
2023-02-23T04:55:09.985Z,132.07
2023-02-23T04:57:38.659Z,117.70
2023-02-23T05:00:07.858Z,117.03
2023-02-23T05:02:36.250Z,116.93
2023-02-23T05:05:04.684Z,117.33
2023-02-23T05:07:33.093Z,119.03
2023-02-23T05:10:02.888Z,118.40
2023-02-23T05:12:32.131Z,117.77
2023-02-23T05:15:00.558Z,120.40
2023-02-23T05:17:29.123Z,117.37
2023-02-23T05:19:57.510Z,115.73
2023-02-23T05:22:25.938Z,109.30
2023-02-23T05:24:56.449Z,112.87
2023-02-23T05:27:27.214Z,111.67
2023-02-23T05:29:55.593Z,110.17
2023-02-23T05:32:24.200Z,108.33
2023-02-23T05:34:53.107Z,109.23
2023-02-23T05:37:21.762Z,117.53
2023-02-23T05:39:50.182Z,107.80
2023-02-23T05:42:18.640Z,110.00
2023-02-23T05:44:48.418Z,112.63
2023-02-23T05:47:16.873Z,113.27
2023-02-23T05:49:46.216Z,117.47
2023-02-23T05:52:14.635Z,116.10
2023-02-23T05:54:43.028Z,118.03
2023-02-23T05:57:11.460Z,120.47
2023-02-23T05:59:40.254Z,120.40
2023-02-23T06:02:10.075Z,117.80
2023-02-23T06:04:38.753Z,119.50
2023-02-23T06:07:07.517Z,114.47
2023-02-23T06:09:36.228Z,108.47
2023-02-23T06:12:04.639Z,114.00
2023-02-23T06:14:33.426Z,119.37
2023-02-23T06:17:01.885Z,125.67
2023-02-23T06:19:31.764Z,131.67
2023-02-23T06:22:00.338Z,121.53
2023-02-23T06:24:28.715Z,126.40
2023-02-23T06:26:57.140Z,123.67
2023-02-23T06:29:25.596Z,121.60
2023-02-23T06:31:54.100Z,124.23
2023-02-23T06:34:22.544Z,118.53
2023-02-23T06:36:52.349Z,121.57
2023-02-23T06:39:20.721Z,119.57
2023-02-23T06:41:49.138Z,120.20
2023-02-23T06:44:17.573Z,122.90
2023-02-23T06:46:45.964Z,120.10
2023-02-23T06:49:16.495Z,130.27
2023-02-23T06:51:45.048Z,125.13
2023-02-23T06:54:16.242Z,128.13
2023-02-23T06:56:44.711Z,126.40
2023-02-23T06:59:13.113Z,123.90
2023-02-23T07:01:42.520Z,137.83
2023-02-23T07:04:11.101Z,127.53
2023-02-23T07:06:39.529Z,128.20
2023-02-23T07:09:08.215Z,129.20
2023-02-23T07:11:37.968Z,154.83
2023-02-23T07:14:07.674Z,161.90
2023-02-23T07:16:38.778Z,157.83
2023-02-23T07:19:07.562Z,136.70
2023-02-23T07:21:36.071Z,156.03
2023-02-23T07:24:04.784Z,159.23
2023-02-23T07:26:33.465Z,152.00
2023-02-23T07:29:03.487Z,149.07
2023-02-23T07:31:31.943Z,159.87
2023-02-23T07:34:00.349Z,161.27
2023-02-23T07:36:28.733Z,121.97
2023-02-23T07:38:57.549Z,129.00
2023-02-23T07:41:26.148Z,136.63
2023-02-23T07:43:54.530Z,107.90
2023-02-23T07:46:24.427Z,112.03
2023-02-23T07:48:52.828Z,134.90
2023-02-23T07:51:21.535Z,167.40
2023-02-23T07:53:50.709Z,152.83
2023-02-23T07:56:19.199Z,167.10
2023-02-23T07:58:47.734Z,151.83
2023-02-23T08:01:16.386Z,153.90
2023-02-23T08:03:49.637Z,162.70
2023-02-23T08:06:18.642Z,154.43
2023-02-23T08:08:47.098Z,155.87
2023-02-23T08:11:15.889Z,160.97
2023-02-23T08:13:44.537Z,161.87
2023-02-23T08:16:13.054Z,169.37
2023-02-23T08:18:41.654Z,138.23
2023-02-23T08:21:11.942Z,114.00
2023-02-23T08:23:40.334Z,151.90
2023-02-23T08:26:08.717Z,147.90
2023-02-23T08:28:37.148Z,160.20
2023-02-23T08:31:05.625Z,164.93
2023-02-23T08:33:35.291Z,167.70
2023-02-23T08:36:03.888Z,157.17
2023-02-23T08:38:33.679Z,92.83
2023-02-23T08:41:02.463Z,136.23
2023-02-23T08:43:30.938Z,143.50
2023-02-23T08:45:59.615Z,156.07
2023-02-23T08:48:28.050Z,168.40
2023-02-23T08:50:58.264Z,181.97
2023-02-23T08:53:27.206Z,120.10
2023-02-23T08:56:01.049Z,114.40
2023-02-23T08:58:30.554Z,161.13
2023-02-23T09:00:59.463Z,170.30
2023-02-23T09:03:28.683Z,151.83
2023-02-23T09:05:57.627Z,160.13
2023-02-23T09:08:26.094Z,165.77
2023-02-23T09:10:54.515Z,96.00
2023-02-23T09:13:24.284Z,125.67
2023-02-23T09:15:52.821Z,137.00
2023-02-23T09:18:24.194Z,151.60
2023-02-23T09:20:52.829Z,149.47
2023-02-23T09:23:21.251Z,142.77
2023-02-23T09:25:49.648Z,105.93
2023-02-23T09:28:18.712Z,89.33
2023-02-23T09:30:48.950Z,121.43
2023-02-23T09:33:18.207Z,135.47
2023-02-23T09:35:46.589Z,143.07
2023-02-23T09:38:14.991Z,148.17
2023-02-23T09:40:47.381Z,97.57
2023-02-23T09:43:17.507Z,96.03
2023-02-23T09:45:49.634Z,127.37
2023-02-23T09:48:20.578Z,131.90
2023-02-23T09:50:50.824Z,127.30
2023-02-23T09:53:29.927Z,93.20
2023-02-23T09:55:59.907Z,87.63
2023-02-23T09:58:29.828Z,119.37
2023-02-23T10:01:09.901Z,126.73
2023-02-23T10:03:41.266Z,129.67
2023-02-23T10:06:11.863Z,114.63
2023-02-23T10:08:45.325Z,68.80
2023-02-23T10:11:19.638Z,126.03
2023-02-23T10:13:51.714Z,131.70
2023-02-23T10:16:23.177Z,141.30
2023-02-23T10:18:56.475Z,114.27
2023-02-23T10:21:31.074Z,96.83
2023-02-23T10:24:02.129Z,129.87
2023-02-23T10:26:44.323Z,134.77
2023-02-23T10:29:19.747Z,121.20
2023-02-23T10:31:51.673Z,86.67
2023-02-23T10:34:23.551Z,124.37
2023-02-23T10:36:54.240Z,134.97
2023-02-23T10:39:22.700Z,146.97
2023-02-23T10:41:51.115Z,92.77
2023-02-23T10:44:21.296Z,121.70
2023-02-23T10:46:54.189Z,145.60
2023-02-23T10:49:30.485Z,139.70
2023-02-23T10:52:02.899Z,113.10
2023-02-23T10:54:44.716Z,88.17
2023-02-23T10:57:17.529Z,118.27
2023-02-23T10:59:59.917Z,125.73
2023-02-23T11:02:30.655Z,99.70
2023-02-23T11:05:01.803Z,106.03
2023-02-23T11:07:31.342Z,127.57
2023-02-23T11:09:59.931Z,139.10
2023-02-23T11:12:37.821Z,95.50
2023-02-23T11:15:32.019Z,101.33
2023-02-23T11:18:08.529Z,109.80
2023-02-23T11:20:40.270Z,128.07
2023-02-23T11:23:14.613Z,90.13
2023-02-23T11:25:45.153Z,98.77
2023-02-23T11:28:20.936Z,107.80
2023-02-23T11:30:50.074Z,122.43
2023-02-23T11:33:19.428Z,85.27
2023-02-23T11:35:49.253Z,101.97
2023-02-23T11:38:22.503Z,116.37
2023-02-23T11:41:00.196Z,93.90
2023-02-23T11:43:28.695Z,82.03
2023-02-23T11:45:59.012Z,98.27
2023-02-23T11:48:29.016Z,117.90
2023-02-23T11:50:59.595Z,119.80
2023-02-23T11:53:31.518Z,100.83
2023-02-23T11:56:02.777Z,80.17
2023-02-23T11:58:36.246Z,97.03
2023-02-23T12:01:11.198Z,109.40
2023-02-23T12:03:44.093Z,85.37
2023-02-23T12:06:13.898Z,92.43
2023-02-23T12:08:44.030Z,106.90
2023-02-23T12:11:14.448Z,113.43
2023-02-23T12:13:45.079Z,78.90
2023-02-23T12:16:17.190Z,96.80
2023-02-23T12:18:48.934Z,114.37
2023-02-23T12:21:30.411Z,115.50
2023-02-23T12:24:03.270Z,95.90
2023-02-23T12:26:33.313Z,77.07
2023-02-23T12:29:03.318Z,86.43
2023-02-23T12:31:40.419Z,100.33
2023-02-23T12:34:14.392Z,77.13
2023-02-23T12:36:46.766Z,73.27
2023-02-23T12:39:18.573Z,98.30
2023-02-23T12:41:50.301Z,95.67
2023-02-23T12:44:26.452Z,71.70
2023-02-23T12:46:55.805Z,84.80
2023-02-23T12:49:27.353Z,95.47
2023-02-23T12:52:00.195Z,83.90
2023-02-23T12:54:30.216Z,64.13
2023-02-23T12:57:05.053Z,88.13
2023-02-23T12:59:50.539Z,92.63
2023-02-23T13:02:23.408Z,84.07
2023-02-23T13:05:05.865Z,82.70
2023-02-23T13:07:41.964Z,91.47
2023-02-23T13:10:14.700Z,106.00
2023-02-23T13:12:49.808Z,78.57
2023-02-23T13:15:25.663Z,82.80
2023-02-23T13:17:56.638Z,88.33
2023-02-23T13:20:28.642Z,92.70
2023-02-23T13:23:02.275Z,67.53
2023-02-23T13:25:35.028Z,83.60
2023-02-23T13:28:03.937Z,100.73
2023-02-23T13:30:33.617Z,92.63
2023-02-23T13:33:04.371Z,71.47
2023-02-23T13:35:36.537Z,82.37
2023-02-23T13:38:10.739Z,96.43
2023-02-23T13:40:43.035Z,92.17
2023-02-23T13:43:17.780Z,75.97
2023-02-23T13:45:52.108Z,111.53
2023-02-23T13:48:55.525Z,109.97
2023-02-23T13:51:31.142Z,72.33
2023-02-23T13:54:07.777Z,83.33
2023-02-23T13:56:39.582Z,105.03
2023-02-23T13:59:09.497Z,111.10
2023-02-23T14:01:39.476Z,84.93
2023-02-23T14:04:12.932Z,84.93
2023-02-23T14:06:42.457Z,91.03
2023-02-23T14:09:13.315Z,92.10
2023-02-23T14:11:46.910Z,72.97
2023-02-23T14:14:17.293Z,84.33
2023-02-23T14:16:47.877Z,105.67
2023-02-23T14:19:32.722Z,92.00
2023-02-23T14:22:03.402Z,72.03
2023-02-23T14:24:33.293Z,94.43
2023-02-23T14:27:34.062Z,113.53
2023-02-23T14:30:25.476Z,84.67
2023-02-23T14:32:54.982Z,90.50
2023-02-23T14:35:47.357Z,110.73
2023-02-23T14:38:25.674Z,113.37
2023-02-23T14:40:55.855Z,91.07
2023-02-23T14:43:33.518Z,95.17
2023-02-23T14:46:05.942Z,114.83
2023-02-23T14:48:36.686Z,106.53
2023-02-23T14:51:17.270Z,74.23
2023-02-23T14:53:45.771Z,95.70
2023-02-23T14:56:26.165Z,109.77
2023-02-23T14:59:00.750Z,106.17
2023-02-23T15:01:34.308Z,93.00
2023-02-23T15:04:09.505Z,103.17
2023-02-23T15:06:38.476Z,111.47
2023-02-23T15:09:07.110Z,101.87
2023-02-23T15:11:37.575Z,90.73
2023-02-23T15:14:08.803Z,103.17
2023-02-23T15:16:42.814Z,109.83
2023-02-23T15:19:15.923Z,92.17
2023-02-23T15:21:44.696Z,90.27
2023-02-23T15:24:14.000Z,110.67
2023-02-23T15:26:44.139Z,118.03
2023-02-23T15:29:15.742Z,95.33
2023-02-23T15:31:50.285Z,87.50
2023-02-23T15:34:20.203Z,103.17
2023-02-23T15:36:50.099Z,107.83
2023-02-23T15:39:20.643Z,90.17
2023-02-23T15:41:50.959Z,79.90
2023-02-23T15:44:22.801Z,103.63
2023-02-23T15:46:53.423Z,108.67
2023-02-23T15:49:24.691Z,87.67
2023-02-23T15:51:55.497Z,101.73
2023-02-23T15:54:25.815Z,115.27
2023-02-23T15:56:59.726Z,103.67
2023-02-23T15:59:30.899Z,94.57
2023-02-23T16:02:02.125Z,100.63
2023-02-23T16:04:32.991Z,109.73
2023-02-23T16:07:16.580Z,101.07
2023-02-23T16:09:49.681Z,96.60
2023-02-23T16:12:21.349Z,103.23
2023-02-23T16:14:53.996Z,118.63
2023-02-23T16:17:30.533Z,97.70
2023-02-23T16:20:15.038Z,93.47
2023-02-23T16:22:46.050Z,108.63
2023-02-23T16:25:16.084Z,104.27
2023-02-23T16:27:47.216Z,95.83
2023-02-23T16:30:24.115Z,92.83
2023-02-23T16:33:05.855Z,111.23
2023-02-23T16:35:39.631Z,105.40
2023-02-23T16:38:13.663Z,93.27
2023-02-23T16:40:42.155Z,102.77
2023-02-23T16:43:12.066Z,110.40
2023-02-23T16:45:43.417Z,86.67
2023-02-23T16:48:13.955Z,94.00
2023-02-23T16:50:42.388Z,105.33
2023-02-23T16:53:11.900Z,114.97
2023-02-23T16:55:41.890Z,95.37
2023-02-23T16:58:16.667Z,103.53
2023-02-23T17:00:45.472Z,117.23
2023-02-23T17:03:21.888Z,108.97
2023-02-23T17:05:50.456Z,100.30
2023-02-23T17:08:18.916Z,104.77
2023-02-23T17:10:48.423Z,109.07
2023-02-23T17:13:19.736Z,99.30
2023-02-23T17:15:51.785Z,96.03
2023-02-23T17:18:20.581Z,101.33
2023-02-23T17:20:49.021Z,101.80
2023-02-23T17:23:17.567Z,97.00
2023-02-23T17:25:46.221Z,107.63
2023-02-23T17:28:14.645Z,107.50
2023-02-23T17:30:44.937Z,99.47
2023-02-23T17:33:13.929Z,91.03
2023-02-23T17:35:42.889Z,93.10
2023-02-23T17:38:11.621Z,80.33
2023-02-23T17:40:40.203Z,54.23
2023-02-23T17:43:08.828Z,43.80
2023-02-23T17:45:37.308Z,48.57
2023-02-23T17:48:07.517Z,56.03
2023-02-23T17:50:35.938Z,72.63
2023-02-23T17:53:04.350Z,85.13
2023-02-23T17:55:32.772Z,85.27
2023-02-23T17:58:01.158Z,96.60
2023-02-23T18:00:29.693Z,107.63
2023-02-23T18:02:58.096Z,98.30
2023-02-23T18:05:27.876Z,93.80
2023-02-23T18:07:56.318Z,108.87
2023-02-23T18:10:25.544Z,107.17
2023-02-23T18:12:54.026Z,105.63
2023-02-23T18:15:22.713Z,112.47
2023-02-23T18:17:54.469Z,116.00
2023-02-23T18:20:22.933Z,115.60
2023-02-23T18:22:52.746Z,114.47
2023-02-23T18:25:21.773Z,111.80
2023-02-23T18:27:54.042Z,104.83
2023-02-23T18:30:23.164Z,105.13
2023-02-23T18:32:53.348Z,107.30
2023-02-23T18:35:21.862Z,106.63
2023-02-23T18:37:50.760Z,115.77
2023-02-23T18:40:26.142Z,116.10
2023-02-23T18:42:54.616Z,107.77
2023-02-23T18:45:23.031Z,108.23
2023-02-23T18:47:52.366Z,113.97
2023-02-23T18:50:20.908Z,113.03
2023-02-23T18:52:50.922Z,114.13
2023-02-23T18:55:22.275Z,112.03
2023-02-23T18:57:50.801Z,105.47
2023-02-23T19:00:19.981Z,108.43
2023-02-23T19:02:48.496Z,112.63
2023-02-23T19:05:20.891Z,117.37
2023-02-23T19:07:50.390Z,110.07
2023-02-23T19:10:19.488Z,114.73
2023-02-23T19:12:49.323Z,110.10
2023-02-23T19:15:17.797Z,109.00
2023-02-23T19:17:47.406Z,108.20
2023-02-23T19:20:16.077Z,117.63
2023-02-23T19:22:45.541Z,112.40
2023-02-23T19:25:15.402Z,114.13
2023-02-23T19:27:44.058Z,110.90
2023-02-23T19:30:14.938Z,113.20
2023-02-23T19:32:44.268Z,113.33
2023-02-23T19:35:14.685Z,107.60
2023-02-23T19:37:47.526Z,109.30
2023-02-23T19:40:16.644Z,115.57
2023-02-23T19:42:46.048Z,119.97
2023-02-23T19:45:16.023Z,116.07
2023-02-23T19:47:44.481Z,110.47
2023-02-23T19:50:16.239Z,112.17
2023-02-23T19:52:46.286Z,110.93
2023-02-23T19:55:14.938Z,115.37
2023-02-23T19:57:43.547Z,113.20
2023-02-23T20:00:12.659Z,110.50
2023-02-23T20:02:43.801Z,111.50
2023-02-23T20:05:12.973Z,108.07
2023-02-23T20:07:41.909Z,107.57
2023-02-23T20:10:13.926Z,107.77
2023-02-23T20:12:42.361Z,101.13
2023-02-23T20:15:11.443Z,110.87
2023-02-23T20:17:40.080Z,103.37
2023-02-23T20:20:12.263Z,109.33
2023-02-23T20:22:42.227Z,102.70
2023-02-23T20:25:16.027Z,112.63
2023-02-23T20:27:45.378Z,110.33
2023-02-23T20:30:15.039Z,113.03
2023-02-23T20:32:43.908Z,114.03
2023-02-23T20:35:15.266Z,113.90
2023-02-23T20:37:44.203Z,121.33
2023-02-23T20:40:17.115Z,114.13
2023-02-23T20:42:46.848Z,115.17
2023-02-23T20:45:15.726Z,115.67
2023-02-23T20:47:45.894Z,121.90
2023-02-23T20:50:16.215Z,116.33
2023-02-23T20:52:45.945Z,113.87
2023-02-23T20:55:19.339Z,119.70
2023-02-23T20:57:48.274Z,114.00
2023-02-23T21:00:22.762Z,109.70
2023-02-23T21:02:55.664Z,116.70
2023-02-23T21:05:26.557Z,106.50
2023-02-23T21:07:56.826Z,108.00
2023-02-23T21:10:25.221Z,98.93
2023-02-23T21:12:54.160Z,100.80
2023-02-23T21:15:22.544Z,102.20
2023-02-23T21:17:50.964Z,95.80
2023-02-23T21:20:20.981Z,94.07
2023-02-23T21:22:50.912Z,96.10
2023-02-23T21:25:20.675Z,89.80
2023-02-23T21:27:49.336Z,82.80
2023-02-23T21:30:19.489Z,84.70
2023-02-23T21:32:48.316Z,80.47
2023-02-23T21:35:17.577Z,77.57
2023-02-23T21:37:46.937Z,81.73
2023-02-23T21:40:19.019Z,87.10
2023-02-23T21:42:47.406Z,85.17
2023-02-23T21:45:15.818Z,90.10
2023-02-23T21:47:45.297Z,82.67
2023-02-23T21:50:14.851Z,88.67
2023-02-23T21:52:43.883Z,89.40
2023-02-23T21:55:23.425Z,97.07
2023-02-23T21:57:53.459Z,93.67
2023-02-23T22:00:22.969Z,91.03
2023-02-23T22:02:51.925Z,90.17
2023-02-23T22:05:20.761Z,87.80
2023-02-23T22:07:50.234Z,93.10
2023-02-23T22:10:18.900Z,90.93
2023-02-23T22:12:47.424Z,89.77
2023-02-23T22:15:17.488Z,93.43
2023-02-23T22:17:45.973Z,103.83
2023-02-23T22:20:14.694Z,99.10
2023-02-23T22:22:43.304Z,100.93
2023-02-23T22:25:11.858Z,103.67
2023-02-23T22:27:42.769Z,100.40
2023-02-23T22:30:12.318Z,101.63
2023-02-23T22:32:43.115Z,103.33
2023-02-23T22:35:12.182Z,98.63
2023-02-23T22:37:41.066Z,101.27
2023-02-23T22:40:15.101Z,110.70
2023-02-23T22:42:45.028Z,96.90
2023-02-23T22:45:14.989Z,105.43
2023-02-23T22:47:45.010Z,103.47
2023-02-23T22:50:19.242Z,98.27
2023-02-23T22:52:47.912Z,99.17
2023-02-23T22:55:16.462Z,106.60
2023-02-23T22:57:46.311Z,101.60
2023-02-23T23:00:16.590Z,99.53
2023-02-23T23:02:46.376Z,102.50
2023-02-23T23:05:14.825Z,99.63
2023-02-23T23:07:46.747Z,94.77
2023-02-23T23:10:15.676Z,100.07
2023-02-23T23:12:44.114Z,93.67
2023-02-23T23:15:17.334Z,93.27
2023-02-23T23:17:49.399Z,94.83
2023-02-23T23:20:22.844Z,92.03
2023-02-23T23:22:51.248Z,84.50
2023-02-23T23:25:23.036Z,89.80
2023-02-23T23:27:53.651Z,87.50
2023-02-23T23:30:26.027Z,89.50
2023-02-23T23:32:56.289Z,94.27
2023-02-23T23:35:26.118Z,87.50
2023-02-23T23:37:54.630Z,85.33
2023-02-23T23:40:24.842Z,81.63
2023-02-23T23:42:55.423Z,79.63
2023-02-23T23:45:25.213Z,78.30
2023-02-23T23:47:53.735Z,73.77
2023-02-23T23:50:26.832Z,72.90
2023-02-23T23:52:57.127Z,73.97
2023-02-23T23:55:31.311Z,66.73
2023-02-23T23:58:00.800Z,65.57
